Time;durP1;ratioP1;P1;durP2;ratioP2;P2;SDS_P1;SDS_P2;PMS_P1;PMS_P2;Temp;Humidity;BMP_temperature;BMP_pressure;BME280_temperature;BME280_humidity;BME280_pressure;Samples;Min_cycle;Max_cycle;Signal;HPM_P1;HPM_P2
2021/12/14 00:00:31;;;;;;;11.03;6.30;;;9.30;93.70;;;9.83;65.46;99788.63;4888905;28;124393;-85
2021/12/14 00:02:59;;;;;;;12.27;7.77;;;9.30;93.60;;;9.80;65.28;99786.41;4862352;28;123432;-82
2021/12/14 00:05:29;;;;;;;13.50;8.27;;;9.40;93.70;;;9.78;65.29;99774.84;4886007;28;114676;-83
2021/12/14 00:07:58;;;;;;;12.90;7.87;;;9.30;93.60;;;9.78;65.39;99786.72;4897545;28;114945;-83
2021/12/14 00:13:18;;;;;;;11.80;6.73;;;9.20;93.60;;;9.81;65.43;99794.44;4890977;28;123381;-85
2021/12/14 00:15:49;;;;;;;12.13;7.17;;;9.30;93.70;;;9.80;65.61;99790.00;4876107;28;113959;-86
2021/12/14 00:18:17;;;;;;;16.10;7.40;;;9.20;93.60;;;9.80;65.61;99783.66;4885835;28;114036;-84
2021/12/14 00:21:19;;;;;;;12.00;7.20;;;9.30;93.70;;;9.80;65.57;99783.66;4876284;28;123679;-85
2021/12/14 00:24:09;;;;;;;14.10;7.83;;;9.20;93.60;;;9.76;65.37;99782.59;4873116;28;123860;-86
2021/12/14 00:26:55;;;;;;;11.40;7.20;;;9.30;93.60;;;9.75;65.22;99781.75;4891463;28;114261;-83
2021/12/14 00:29:28;;;;;;;8.60;6.10;;;9.20;93.60;;;9.75;65.34;99778.97;4869304;28;115425;-85
2021/12/14 00:32:00;;;;;;;13.60;7.87;;;9.20;93.60;;;9.72;65.37;99783.16;4898052;28;124611;-85
2021/12/14 00:34:43;;;;;;;12.07;6.67;;;9.20;93.60;;;9.69;65.58;99789.22;4871526;28;121745;-82
2021/12/14 00:37:17;;;;;;;10.63;6.53;;;9.20;93.70;;;9.70;65.60;99790.91;4888777;28;114659;-83
2021/12/14 00:39:46;;;;;;;12.60;7.20;;;9.10;93.60;;;9.69;65.52;99786.47;4900692;28;114505;-85
2021/12/14 00:42:13;;;;;;;11.63;6.70;;;9.10;93.70;;;9.71;65.74;99784.25;4884572;28;124193;-83
2021/12/14 00:44:40;;;;;;;10.67;6.60;;;8.10;93.20;;;9.71;65.52;99778.72;4864083;28;123505;-84
2021/12/14 00:47:06;;;;;;;9.97;6.70;;;9.20;94.00;;;9.71;65.41;99784.25;4873702;28;114433;-84
2021/12/14 00:49:34;;;;;;;10.10;5.90;;;9.20;93.70;;;9.70;65.58;99785.38;4882333;28;113400;-86
2021/12/14 00:52:02;;;;;;;10.60;6.80;;;9.20;93.70;;;9.67;65.55;99788.69;4888930;28;123992;-81
2021/12/14 00:54:30;;;;;;;9.90;6.43;;;9.20;93.60;;;9.63;65.60;99800.56;4873224;28;124231;-86
2021/12/14 00:56:57;;;;;;;13.07;7.90;;;9.10;93.50;;;9.60;65.43;99785.41;4882669;28;115107;-84
2021/12/14 00:59:26;;;;;;;8.80;6.37;;;8.90;93.50;;;9.57;65.61;99785.97;4875939;28;114851;-85
2021/12/14 01:02:17;;;;;;;13.30;7.20;;;9.10;93.50;;;9.55;65.49;99785.44;4875196;28;123871;-82
2021/12/14 01:04:58;;;;;;;10.63;6.37;;;9.10;93.50;;;9.53;65.42;99790.38;4876021;28;123117;-80
2021/12/14 01:07:29;;;;;;;12.60;7.63;;;9.10;93.60;;;9.53;65.72;99795.91;4892524;28;114771;-82
2021/12/14 01:10:03;;;;;;;11.87;7.40;;;9.10;93.60;;;9.51;65.59;99795.38;4879523;28;114158;-81
2021/12/14 01:12:50;;;;;;;11.37;7.43;;;9.00;93.60;;;9.50;65.52;99796.47;4883436;28;123745;-78
2021/12/14 01:15:42;;;;;;;10.43;6.27;;;9.00;93.60;;;9.48;65.64;99805.06;4892832;28;122855;-84
2021/12/14 01:18:28;;;;;;;15.97;7.20;;;9.00;93.70;;;9.46;66.00;99814.72;4860063;28;112936;-84
2021/12/14 01:24:20;;;;;;;12.33;6.90;;;9.00;93.70;;;9.50;65.83;99824.06;4882484;28;124976;-80
2021/12/14 01:26:46;;;;;;;12.07;7.40;;;9.00;93.80;;;9.48;66.01;99813.31;4885831;28;122990;-85
2021/12/14 01:29:17;;;;;;;11.93;6.90;;;9.10;93.80;;;9.50;65.86;99802.81;4869944;28;114678;-84
2021/12/14 01:31:47;;;;;;;12.07;8.03;;;9.00;93.80;;;9.51;66.03;99814.69;4875100;28;113864;-85
2021/12/14 01:34:19;;;;;;;13.90;6.83;;;9.00;93.80;;;9.50;65.77;99821.31;4872940;28;124049;-84
2021/12/14 01:36:52;;;;;;;12.50;6.13;;;9.00;93.80;;;9.49;66.08;99817.72;4873761;28;123842;-85
2021/12/14 01:39:33;;;;;;;12.60;7.50;;;9.00;93.80;;;9.48;66.05;99818.84;4884741;28;114337;-84
2021/12/14 01:42:15;;;;;;;12.23;6.87;;;9.00;93.80;;;9.47;66.09;99814.41;4877032;28;113266;-84
2021/12/14 01:44:54;;;;;;;11.20;6.47;;;9.00;93.80;;;9.46;65.87;99817.47;4871971;28;125050;-80
2021/12/14 01:47:35;;;;;;;11.90;7.00;;;9.00;93.80;;;9.49;66.21;99825.19;4884497;28;122343;-81
2021/12/14 01:50:08;;;;;;;13.37;7.00;;;9.00;93.90;;;9.48;66.13;99821.59;4876865;28;116064;-80
2021/12/14 01:52:36;;;;;;;10.57;6.23;;;9.00;93.90;;;9.45;65.95;99815.78;4874556;28;114760;-83
2021/12/14 01:55:33;;;;;;;11.80;6.90;;;8.90;93.80;;;9.44;65.99;99814.16;4860803;28;123922;-81
2021/12/14 01:58:05;;;;;;;12.50;7.07;;;8.90;93.80;;;9.40;66.43;99824.94;4878272;28;125825;-79
2021/12/14 02:00:55;;;;;;;10.10;6.43;;;8.90;93.90;;;9.41;66.04;99825.75;4892762;28;113446;-84
2021/12/14 02:03:56;;;;;;;10.80;6.70;;;8.90;93.90;;;9.40;66.30;99819.41;4881489;28;114801;-81
2021/12/14 02:06:28;;;;;;;11.87;6.93;;;8.90;93.90;;;9.39;66.25;99822.44;4877023;28;123539;-81
2021/12/14 02:09:12;;;;;;;14.30;7.77;;;8.90;93.90;;;9.40;66.14;99813.03;4891839;28;124470;-85
2021/12/14 02:11:51;;;;;;;11.30;6.83;;;8.90;94.00;;;9.41;66.57;99815.53;4891412;28;115009;-80
2021/12/14 02:14:19;;;;;;;10.80;6.60;;;9.30;94.20;;;9.41;66.24;99818.28;4880030;28;114513;-82
2021/12/14 02:16:57;;;;;;;12.30;6.70;;;8.90;94.00;;;9.45;66.34;99815.78;4887090;28;123266;-80
2021/12/14 02:19:28;;;;;;;15.27;6.73;;;8.90;94.10;;;9.46;66.45;99818.28;4888077;28;124331;-82
2021/12/14 02:21:57;;;;;;;10.63;6.60;;;8.90;94.10;;;9.47;66.33;99819.09;4892100;28;114292;-85
2021/12/14 02:24:28;;;;;;;11.77;6.77;;;8.90;94.10;;;9.48;66.14;99816.09;4876253;28;113116;-81
2021/12/14 02:26:55;;;;;;;12.03;6.53;;;9.00;94.10;;;9.47;66.24;99814.41;4881928;28;123157;-83
2021/12/14 02:29:37;;;;;;;10.90;6.87;;;8.90;94.10;;;9.46;66.21;99810.00;4887247;28;124056;-82
2021/12/14 02:32:12;;;;;;;14.20;6.73;;;8.90;94.00;;;9.43;66.20;99810.56;4872578;28;114492;-79
2021/12/14 02:34:56;;;;;;;11.40;6.60;;;8.90;94.00;;;9.43;66.37;99810.56;4901457;28;115342;-81
2021/12/14 02:38:03;;;;;;;13.33;6.87;;;8.90;94.00;;;9.42;66.43;99813.59;4870254;28;124903;-78
2021/12/14 02:41:01;;;;;;;12.30;6.17;;;8.90;94.10;;;9.43;66.41;99809.72;4889054;28;123832;-81
2021/12/14 02:43:43;;;;;;;12.07;7.30;;;8.90;94.10;;;9.42;66.25;99806.16;4877475;28;113986;-83
2021/12/14 02:46:21;;;;;;;12.57;6.77;;;8.90;94.10;;;9.42;66.48;99799.81;4883274;28;115273;-84
2021/12/14 02:48:54;;;;;;;13.03;7.20;;;8.90;94.10;;;9.41;66.49;99809.19;4879752;28;124014;-82
2021/12/14 02:51:38;;;;;;;14.70;7.43;;;8.90;94.10;;;9.42;66.46;99800.63;4871039;28;122618;-79
2021/12/14 02:54:18;;;;;;;14.63;6.97;;;8.90;94.10;;;9.39;66.52;99800.38;4867977;28;112663;-84
2021/12/14 02:56:50;;;;;;;15.80;6.60;;;8.80;94.10;;;9.37;66.42;99806.16;4873249;28;114281;-81
2021/12/14 02:59:29;;;;;;;18.50;7.30;;;8.90;94.10;;;9.36;66.48;99800.94;4858866;28;123245;-80
2021/12/14 03:02:04;;;;;;;9.77;6.43;;;8.90;94.10;;;9.34;67.00;99808.66;4890058;28;124243;-82
2021/12/14 03:04:37;;;;;;;11.70;7.20;;;8.80;94.10;;;9.32;66.79;99813.63;4870850;28;114283;-82
2021/12/14 03:07:05;;;;;;;9.43;5.53;;;9.00;94.20;;;9.33;66.77;99807.84;4883873;28;114382;-81
2021/12/14 03:09:53;;;;;;;13.87;6.97;;;8.80;94.20;;;9.35;66.77;99805.63;4879996;28;124190;-83
2021/12/14 03:12:31;;;;;;;10.73;6.50;;;8.80;94.20;;;9.35;66.57;99797.38;4890099;28;123834;-81
2021/12/14 03:15:13;;;;;;;10.07;6.60;;;8.80;94.20;;;9.35;66.71;99794.59;4888999;28;114486;-82
2021/12/14 03:17:43;;;;;;;10.73;6.70;;;8.80;94.20;;;9.35;66.70;99793.75;4883121;28;112953;-82
2021/12/14 03:20:17;;;;;;;13.10;6.67;;;8.80;94.20;;;9.34;66.59;99787.41;4888345;28;124043;-79
2021/12/14 03:22:45;;;;;;;11.20;6.77;;;8.80;94.20;;;9.32;67.04;99799.84;4886918;28;123271;-84
2021/12/14 03:25:15;;;;;;;10.77;6.33;;;8.80;94.20;;;9.30;66.86;99791.84;4890697;28;114398;-81
2021/12/14 03:27:44;;;;;;;12.20;6.73;;;8.80;94.50;;;9.28;66.67;99794.06;4863091;28;114373;-83
2021/12/14 03:30:25;;;;;;;10.40;6.30;;;8.80;94.20;;;9.26;66.67;99791.56;4890975;28;124737;-83
2021/12/14 03:32:59;;;;;;;11.47;7.07;;;8.80;94.20;;;9.24;66.79;99793.81;4879053;28;124129;-85
2021/12/14 03:35:43;;;;;;;10.00;6.77;;;8.70;94.20;;;9.23;66.84;99794.88;4876640;28;115406;-81
2021/12/14 03:38:35;;;;;;;11.57;6.13;;;8.70;94.20;;;9.22;66.70;99795.19;4869671;28;114817;-85
2021/12/14 03:41:39;;;;;;;12.23;6.80;;;8.70;94.20;;;9.19;66.86;99798.50;4872421;28;124010;-82
2021/12/14 03:44:44;;;;;;;8.53;5.37;;;8.70;94.20;;;9.15;66.69;99800.16;4890428;28;124292;-80
2021/12/14 03:47:21;;;;;;;11.67;6.37;;;8.70;94.20;;;9.15;66.72;99809.25;4873800;28;113402;-82
2021/12/14 03:49:54;;;;;;;10.97;6.80;;;8.60;94.20;;;9.15;67.07;99817.50;4891695;28;114110;-81
2021/12/14 03:52:26;;;;;;;8.23;5.30;;;8.70;94.20;;;9.15;66.73;99809.25;4881656;28;124012;-82
2021/12/14 03:54:54;;;;;;;10.10;6.83;;;8.70;94.20;;;9.16;66.86;99813.66;4871077;28;123641;-81
2021/12/14 03:57:21;;;;;;;10.63;5.67;;;8.80;94.30;;;9.16;66.92;99810.06;4856148;28;113372;-81
2021/12/14 03:59:49;;;;;;;8.67;6.20;;;8.60;94.20;;;9.17;66.79;99814.50;4874527;28;113742;-79
2021/12/14 04:02:18;;;;;;;9.73;5.83;;;8.70;94.20;;;9.20;66.69;99816.69;4866704;28;123188;-82
2021/12/14 04:05:12;;;;;;;8.80;5.83;;;8.70;94.20;;;9.21;66.57;99832.94;4854540;28;122915;-83
2021/12/14 04:07:42;;;;;;;10.37;6.03;;;8.70;94.20;;;9.17;66.54;99829.09;4873719;28;114470;-82
2021/12/14 04:10:15;;;;;;;8.97;5.37;;;8.60;94.40;;;9.15;66.55;99827.72;4863506;28;114387;-83
2021/12/14 04:12:42;;;;;;;8.80;5.30;;;8.60;94.10;;;9.11;66.63;99821.94;4870955;28;124184;-81
2021/12/14 04:15:10;;;;;;;8.03;5.50;;;8.60;94.10;;;9.09;66.55;99817.81;4867366;28;124068;-81
2021/12/14 04:17:38;;;;;;;7.53;4.87;;;8.60;94.10;;;9.04;66.82;99815.88;4870495;28;114305;-83
2021/12/14 04:20:25;;;;;;;9.53;4.90;;;8.70;94.10;;;9.00;66.70;99821.13;4870980;28;114389;-81
2021/12/14 04:22:52;;;;;;;6.53;4.43;;;8.50;94.00;;;8.96;66.67;99819.19;4864543;28;124243;-82
2021/12/14 04:25:27;;;;;;;8.40;4.03;;;8.50;94.00;;;8.97;66.73;99799.63;4862433;28;124417;-80
2021/12/14 04:27:56;;;;;;;10.67;6.00;;;8.50;94.10;;;8.94;66.64;99783.63;4870130;28;115176;-82
2021/12/14 04:30:26;;;;;;;6.73;4.80;;;8.50;94.10;;;8.90;66.90;99788.06;4866158;28;114814;-81
2021/12/14 04:32:58;;;;;;;7.27;4.60;;;8.40;94.10;;;8.89;66.69;99802.91;4867388;28;123796;-82
2021/12/14 04:35:25;;;;;;;7.97;4.97;;;8.40;94.10;;;8.90;66.78;99795.50;4853777;28;122756;-84
2021/12/14 04:37:57;;;;;;;8.37;5.50;;;8.40;94.10;;;8.90;66.91;99799.09;4852751;28;113329;-80
2021/12/14 04:51:59;;;;;;;7.30;4.70;;;8.40;94.10;;;8.78;66.50;99785.56;4861753;28;114328;-83
2021/12/14 04:54:47;;;;;;;6.63;4.70;;;8.30;94.00;;;8.76;66.54;99775.94;4840393;28;123471;-83
2021/12/14 04:57:36;;;;;;;9.97;5.30;;;8.30;94.00;;;8.72;66.55;99774.84;4866498;28;124040;-83
2021/12/14 05:00:40;;;;;;;5.47;3.90;;;8.20;93.90;;;8.67;66.58;99772.91;4817250;28;97011;-80
2021/12/14 05:03:31;;;;;;;4.87;4.37;;;8.20;93.90;;;8.67;66.74;99767.41;4858125;28;113860;-83
2021/12/14 05:06:14;;;;;;;5.27;3.73;;;8.20;94.00;;;8.66;66.71;99765.75;4862392;28;124035;-81
2021/12/14 05:11:23;;;;;;;7.07;4.10;;;8.20;93.90;;;8.64;66.50;99762.44;4868889;28;114088;-80
2021/12/14 05:13:55;;;;;;;6.17;3.97;;;8.20;93.90;;;8.63;66.46;99753.34;4852392;28;114000;-82
2021/12/14 05:16:26;;;;;;;5.10;3.73;;;8.20;93.90;;;8.61;66.41;99761.06;4858754;28;125360;-84
2021/12/14 05:18:58;;;;;;;5.30;3.60;;;8.20;93.80;;;8.61;65.86;99757.50;4864880;28;123803;-82
2021/12/14 05:21:42;;;;;;;5.80;4.10;;;8.10;93.80;;;8.60;66.46;99755.84;4858609;28;114706;-81
2021/12/14 05:24:15;;;;;;;5.17;4.27;;;8.10;93.80;;;8.59;66.34;99771.53;4855281;28;114132;-82
2021/12/14 05:26:48;;;;;;;4.77;4.03;;;8.10;93.80;;;8.58;66.20;99780.91;4855899;28;123187;-83
2021/12/14 05:29:15;;;;;;;6.20;4.23;;;8.60;94.00;;;8.56;66.23;99793.28;4855975;28;123002;-83
2021/12/14 05:31:49;;;;;;;6.07;3.70;;;8.10;93.80;;;8.57;66.50;99792.19;4870108;28;114242;-81
2021/12/14 05:34:17;;;;;;;6.40;4.17;;;8.10;93.70;;;8.51;66.15;99790.53;4876003;28;113879;-85
2021/12/14 05:36:44;;;;;;;6.30;4.43;;;8.00;93.70;;;8.45;66.33;99792.47;4872906;28;124839;-80
2021/12/14 05:39:35;;;;;;;6.43;4.70;;;8.00;93.60;;;8.39;66.32;99788.88;4855579;28;123217;-80
2021/12/14 05:44:41;;;;;;;5.63;3.80;;;7.90;93.60;;;8.30;66.54;99762.13;4874884;28;114295;-80
2021/12/14 05:47:16;;;;;;;6.20;3.83;;;7.90;93.60;;;8.30;66.55;99751.09;4866927;28;122818;-83
2021/12/14 05:49:46;;;;;;;5.80;3.70;;;8.40;93.80;;;8.30;66.34;99751.94;4857989;28;124522;-82
2021/12/14 05:52:19;;;;;;;5.90;4.10;;;7.90;93.60;;;8.34;66.26;99753.03;4867703;28;114018;-81
2021/12/14 05:54:48;;;;;;;3.93;3.00;;;7.90;93.60;;;8.33;66.44;99761.59;4877325;28;113954;-79
2021/12/14 05:57:22;;;;;;;5.60;4.20;;;7.90;93.60;;;8.33;65.98;99778.13;4890195;28;124052;-79
2021/12/14 05:59:50;;;;;;;5.23;3.70;;;7.90;93.60;;;8.31;66.24;99775.63;4890954;28;124612;-82
2021/12/14 06:02:19;;;;;;;6.00;4.27;;;7.90;93.60;;;8.33;66.39;99778.94;4890816;28;114246;-82
2021/12/14 06:04:51;;;;;;;6.00;4.33;;;7.90;93.60;;;8.33;66.10;99784.44;4887078;28;112955;-81
2021/12/14 06:07:20;;;;;;;6.20;4.37;;;7.80;93.50;;;8.30;65.88;99768.47;4888465;28;123960;-79
2021/12/14 06:09:50;;;;;;;5.40;4.00;;;7.80;93.50;;;8.28;65.95;99770.66;4868064;28;123933;-82
2021/12/14 06:12:25;;;;;;;7.33;4.10;;;7.80;93.50;;;8.26;66.00;99761.03;4883503;28;115599;-82
2021/12/14 06:14:55;;;;;;;5.83;3.97;;;7.80;93.40;;;8.19;65.81;99758.53;4888897;28;114641;-79
2021/12/14 06:17:39;;;;;;;4.00;3.37;;;7.80;93.70;;;8.14;66.04;99747.50;4873409;28;124743;-83
2021/12/14 06:20:13;;;;;;;5.77;4.20;;;7.70;93.30;;;8.07;66.26;99757.97;4886618;28;122741;-84
2021/12/14 06:22:41;;;;;;;5.70;3.80;;;7.60;93.20;;;8.00;66.21;99758.22;4888294;28;114419;-80
2021/12/14 06:25:13;;;;;;;5.60;3.90;;;7.60;93.30;;;7.99;65.91;99772.25;4875320;28;113263;-85
2021/12/14 06:27:40;;;;;;;6.67;3.67;;;7.60;93.30;;;8.00;65.97;99779.41;4867990;28;124155;-85
2021/12/14 06:30:17;;;;;;;4.60;3.37;;;7.50;93.30;;;8.00;65.74;99773.91;4871235;28;124426;-86
2021/12/14 06:32:50;;;;;;;6.20;4.00;;;7.50;93.30;;;8.00;65.94;99763.72;4861093;28;113531;-85
2021/12/14 06:35:22;;;;;;;6.90;3.77;;;7.50;93.30;;;8.04;66.01;99758.50;4864752;28;114011;-85
2021/12/14 06:40:43;;;;;;;3.77;3.10;;;7.60;93.40;;;8.08;65.78;99756.84;4870993;28;123904;-86
2021/12/14 06:43:16;;;;;;;3.10;2.60;;;7.60;93.40;;;8.10;65.74;99752.72;4886472;28;113344;-87
2021/12/14 06:45:55;;;;;;;5.00;3.67;;;7.60;93.40;;;8.16;65.76;99756.31;4890886;28;114101;-86
2021/12/14 06:48:51;;;;;;;5.80;4.03;;;7.60;93.40;;;8.18;65.48;99749.44;4885705;28;125536;-86
2021/12/14 06:51:35;;;;;;;5.00;3.53;;;7.70;93.40;;;8.24;65.56;99753.03;4873732;28;124420;-87
2021/12/14 06:54:08;;;;;;;7.13;3.07;;;7.70;93.40;;;8.26;65.44;99758.28;4871168;28;114637;-86
2021/12/14 06:56:37;;;;;;;3.60;3.00;;;7.80;93.40;;;8.27;65.12;99757.16;4875720;28;113053;-86
2021/12/14 06:59:13;;;;;;;4.97;3.60;;;7.70;93.60;;;8.32;65.37;99737.88;4887272;28;123788;-87
2021/12/14 07:02:07;;;;;;;5.43;3.37;;;7.70;93.30;;;8.33;65.35;99734.88;4884746;28;122831;-85
2021/12/14 07:04:52;;;;;;;6.83;4.23;;;7.80;93.30;;;8.32;64.99;99727.69;4860025;28;113926;-87
2021/12/14 07:07:26;;;;;;;5.03;3.83;;;7.80;93.20;;;8.30;65.26;99729.94;4889391;28;115135;-86
2021/12/14 07:10:01;;;;;;;6.03;3.70;;;7.80;93.20;;;8.32;65.05;99721.38;4889028;28;124186;-85
2021/12/14 07:12:35;;;;;;;5.33;4.10;;;7.80;93.10;;;8.31;64.95;99720.56;4889787;28;123736;-87
2021/12/14 07:15:26;;;;;;;5.10;3.80;;;7.80;93.10;;;8.28;65.01;99712.84;4889561;28;114922;-86
2021/12/14 07:18:04;;;;;;;7.10;4.73;;;7.80;93.00;;;8.25;65.05;99707.91;4870333;28;113382;-86
2021/12/14 07:20:49;;;;;;;5.73;4.10;;;8.30;93.20;;;8.27;64.93;99708.41;4874982;28;123292;-88
2021/12/14 07:23:35;;;;;;;4.83;3.60;;;7.80;93.00;;;8.28;64.88;99704.59;4895590;28;123008;-87
2021/12/14 07:26:10;;;;;;;6.57;5.07;;;6.80;92.60;;;8.27;64.96;99699.34;4894270;28;114434;-89
2021/12/14 07:28:41;;;;;;;6.17;4.27;;;7.70;92.90;;;8.24;64.60;99700.72;4889206;28;114110;-86
2021/12/14 07:31:24;;;;;;;7.13;4.63;;;7.70;93.00;;;8.25;64.76;99710.66;4889708;28;122903;-88
2021/12/14 07:33:59;;;;;;;6.30;4.20;;;7.70;93.00;;;8.28;64.92;99709.28;4889307;28;123419;-87
2021/12/14 07:36:34;;;;;;;3.80;3.20;;;7.10;92.70;;;8.28;65.03;99720.28;4873992;28;113536;-84
2021/12/14 07:39:14;;;;;;;5.17;3.17;;;7.70;93.00;;;8.30;64.60;99740.09;4875673;28;113593;-87
2021/12/14 07:41:46;;;;;;;4.87;3.97;;;7.80;93.00;;;8.32;64.99;99755.22;4876439;28;123872;-87
2021/12/14 07:44:19;;;;;;;4.50;3.63;;;7.80;93.00;;;8.33;64.67;99745.88;4852055;28;122066;-87
2021/12/14 07:47:05;;;;;;;4.70;4.10;;;7.80;93.00;;;8.35;64.60;99749.16;4891906;28;114349;-88
2021/12/14 07:49:59;;;;;;;4.47;3.53;;;7.80;92.90;;;8.35;64.64;99746.41;4872850;28;113526;-87
2021/12/14 07:52:32;;;;;;;7.70;4.13;;;7.80;92.90;;;8.33;64.51;99739.56;4877040;28;124816;-87
2021/12/14 07:55:10;;;;;;;8.33;4.23;;;7.80;92.80;;;8.30;64.35;99740.94;4864146;28;123875;-86
2021/12/14 07:57:38;;;;;;;6.20;4.40;;;7.80;92.80;;;8.27;64.49;99735.13;4871328;28;114955;-86
2021/12/14 08:00:14;;;;;;;6.87;4.67;;;7.80;92.70;;;8.27;64.37;99735.13;4868892;28;114964;-87
2021/12/14 08:02:45;;;;;;;5.53;3.90;;;7.80;92.70;;;8.28;64.45;99729.38;4868467;28;124072;-87
2021/12/14 08:05:25;;;;;;;5.20;4.10;;;7.80;92.70;;;8.32;64.15;99737.88;4866527;28;123733;-85
2021/12/14 08:08:03;;;;;;;5.40;4.40;;;7.80;92.70;;;8.32;64.18;99738.72;4870636;28;114353;-87
2021/12/14 08:10:37;;;;;;;6.07;3.93;;;7.80;92.70;;;8.31;64.32;99759.09;4869076;28;114507;-85
2021/12/14 08:13:16;;;;;;;5.90;4.63;;;7.80;92.70;;;8.35;64.03;99762.94;4868136;28;124088;-85
2021/12/14 08:15:53;;;;;;;5.50;3.80;;;7.80;92.70;;;8.37;63.90;99765.44;4846890;28;122161;-83
2021/12/14 08:18:27;;;;;;;6.60;4.50;;;7.80;92.70;;;8.38;64.14;99769.81;4875661;28;114459;-84
2021/12/14 08:21:19;;;;;;;9.43;4.83;;;7.80;92.60;;;8.38;64.29;99769.81;4878526;28;114000;-87
2021/12/14 08:24:02;;;;;;;5.70;3.90;;;8.00;92.70;;;8.42;64.05;99782.00;4872409;28;123689;-85
2021/12/14 08:26:45;;;;;;;5.27;3.60;;;7.80;92.60;;;8.44;64.39;99770.72;4873123;28;123688;-88
2021/12/14 08:29:22;;;;;;;4.00;3.53;;;7.90;92.70;;;8.45;64.08;99808.97;4863688;28;112683;-87
2021/12/14 08:32:15;;;;;;;5.97;4.10;;;7.90;92.60;;;8.48;64.10;99802.91;4881382;28;112982;-88
2021/12/14 08:34:50;;;;;;;7.00;4.17;;;7.90;92.60;;;8.50;64.08;99799.91;4873803;28;124291;-85
2021/12/14 08:37:59;;;;;;;5.70;3.90;;;8.00;92.60;;;8.52;64.02;99798.53;4877771;28;122866;-88
2021/12/14 08:40:37;;;;;;;4.70;3.80;;;7.90;92.50;;;8.56;63.57;99804.31;4809711;29;114623;-87
2021/12/14 08:43:23;;;;;;;5.33;4.10;;;8.00;92.60;;;8.57;64.12;99800.44;4822260;29;112120;-86
2021/12/14 08:46:09;;;;;;;6.27;4.53;;;8.00;92.60;;;8.60;63.84;99791.66;4811180;29;123254;-88
2021/12/14 08:48:45;;;;;;;6.73;4.10;;;8.00;92.60;;;8.61;63.80;99796.06;4807346;29;123762;-85
2021/12/14 08:51:21;;;;;;;5.93;4.40;;;8.10;92.60;;;8.65;63.85;99786.16;4803730;29;114403;-86
2021/12/14 08:53:57;;;;;;;4.70;3.50;;;8.10;92.50;;;8.68;63.56;99780.09;4822371;29;114114;-86
2021/12/14 08:56:29;;;;;;;5.93;4.00;;;8.10;92.50;;;8.72;63.49;99775.66;4822509;29;123636;-87
2021/12/14 08:58:56;;;;;;;6.80;3.90;;;8.10;92.50;;;8.73;63.46;99766.31;4822933;29;123943;-87
2021/12/14 09:01:43;;;;;;;6.30;3.80;;;8.20;92.40;;;8.76;63.11;99756.66;4830502;29;114014;-88
2021/12/14 09:04:37;;;;;;;6.23;4.57;;;8.20;92.40;;;8.80;63.24;99777.84;4828191;29;112400;-88
2021/12/14 09:07:15;;;;;;;8.30;5.33;;;8.20;92.40;;;8.82;63.25;99783.94;4822121;29;123820;-84
2021/12/14 09:09:42;;;;;;;9.97;4.87;;;8.20;92.40;;;8.84;63.41;99789.16;4823077;29;124888;-88
2021/12/14 09:12:41;;;;;;;7.17;4.73;;;8.20;92.30;;;8.90;63.14;99784.47;4886082;28;113361;-86
2021/12/14 09:15:30;;;;;;;6.60;4.20;;;8.30;92.40;;;8.92;63.33;99787.75;4891724;28;113961;-87
2021/12/14 09:18:18;;;;;;;6.43;4.50;;;8.30;92.40;;;8.97;63.07;99801.53;4888545;28;123896;-86
2021/12/14 09:21:11;;;;;;;12.03;4.93;;;8.30;92.30;;;8.99;63.17;99810.38;4891744;28;123945;-89
2021/12/14 09:23:47;;;;;;;8.13;4.77;;;8.40;92.40;;;9.01;62.91;99816.44;4896080;28;114086;-88
2021/12/14 09:26:25;;;;;;;10.17;5.60;;;8.40;92.30;;;9.03;62.93;99809.53;4882398;28;114421;-87
2021/12/14 09:28:52;;;;;;;7.00;4.83;;;8.40;92.30;;;9.05;63.17;99803.72;4895861;28;123764;-86
2021/12/14 09:31:25;;;;;;;7.90;4.87;;;8.40;92.30;;;9.06;62.61;99794.38;4905986;28;123940;-87
2021/12/14 09:34:13;;;;;;;6.47;4.40;;;8.40;92.20;;;9.09;62.91;99793.00;4881903;28;112501;-87
2021/12/14 09:36:40;;;;;;;6.93;4.30;;;8.50;92.20;;;9.11;62.90;99788.00;4891521;28;112660;-89
2021/12/14 09:39:19;;;;;;;8.73;5.90;;;8.50;92.20;;;9.16;62.94;99786.09;4879016;28;124181;-87
2021/12/14 09:42:08;;;;;;;7.57;5.10;;;8.90;92.40;;;9.19;63.04;99779.19;4904488;28;123578;-87
2021/12/14 09:44:38;;;;;;;8.63;5.37;;;8.60;92.20;;;9.23;62.70;99788.56;4840642;29;115025;-84
2021/12/14 09:47:18;;;;;;;8.23;4.50;;;8.60;92.10;;;9.28;62.51;99789.38;4846684;29;115093;-88
2021/12/14 09:49:48;;;;;;;11.43;5.27;;;8.80;92.20;;;9.32;62.28;99791.56;4835948;29;123420;-86
2021/12/14 09:52:29;;;;;;;10.90;5.40;;;8.70;92.10;;;9.35;61.95;99788.22;4833005;29;123259;-86
2021/12/14 09:54:58;;;;;;;7.27;5.10;;;8.70;91.90;;;9.34;61.89;99803.16;4831095;29;114367;-86
2021/12/14 09:57:40;;;;;;;5.70;4.80;;;9.50;92.20;;;9.39;62.37;99794.84;4817497;29;113946;-87
2021/12/14 10:00:33;;;;;;;6.67;5.00;;;8.80;92.00;;;9.40;62.16;99791.84;4832674;29;123434;-87
2021/12/14 10:03:04;;;;;;;8.93;5.60;;;8.80;91.80;;;9.41;61.84;99773.34;4833015;29;122265;-85
2021/12/14 10:05:45;;;;;;;6.83;4.90;;;8.80;91.80;;;9.43;62.01;99782.13;4832686;29;113829;-85
2021/12/14 10:08:25;;;;;;;7.53;5.20;;;8.80;91.70;;;9.46;61.95;99784.38;4826104;29;116227;-86
2021/12/14 10:11:12;;;;;;;8.03;4.73;;;8.90;91.80;;;9.52;61.96;99780.47;4829715;29;123951;-87
2021/12/14 10:13:44;;;;;;;8.20;5.23;;;8.90;91.80;;;9.57;62.05;99783.22;4832429;29;122954;-87
2021/12/14 10:16:12;;;;;;;9.67;5.63;;;9.00;91.70;;;9.57;61.79;99785.97;4818455;29;112265;-85
2021/12/14 10:18:47;;;;;;;8.87;5.90;;;9.00;91.60;;;9.55;61.24;99796.47;4829547;29;113926;-90
2021/12/14 10:21:27;;;;;;;8.07;5.07;;;9.00;91.30;;;9.52;61.36;99789.56;4844997;28;123908;-86
2021/12/14 10:23:55;;;;;;;9.73;5.27;;;9.00;91.40;;;9.53;61.37;99784.88;4878501;28;123897;-86
2021/12/14 10:26:31;;;;;;;10.50;6.60;;;9.00;91.50;;;9.55;60.93;99774.38;4873286;28;114436;-87
2021/12/14 10:29:04;;;;;;;8.03;5.10;;;9.10;91.20;;;9.48;61.13;99777.47;4875957;28;113213;-87
2021/12/14 10:31:41;;;;;;;8.37;4.80;;;8.90;91.20;;;9.49;61.11;99772.75;4875575;28;124587;-88
2021/12/14 10:34:17;;;;;;;9.60;5.70;;;9.00;91.30;;;9.52;61.08;99783.22;4877977;28;124275;-89
2021/12/14 10:36:54;;;;;;;4.87;4.37;;;9.00;91.30;;;9.53;61.31;99784.88;4862443;28;113917;-88
2021/12/14 10:45:04;;;;;;;6.67;4.50;;;9.10;91.60;;;9.65;61.24;99779.06;4872250;28;123919;-86
2021/12/14 10:47:37;;;;;;;9.40;5.73;;;9.10;91.30;;;9.70;61.04;99782.63;4877056;28;113169;-88
2021/12/14 10:50:14;;;;;;;8.40;5.03;;;9.10;91.20;;;9.73;60.90;99781.22;4860105;28;114718;-87
2021/12/14 10:52:43;;;;;;;11.20;6.07;;;9.10;91.20;;;9.77;60.77;99781.47;4873029;28;124088;-86
2021/12/14 10:55:26;;;;;;;8.83;6.70;;;9.20;91.20;;;9.77;60.40;99779.53;4859457;28;122931;-87
2021/12/14 10:57:55;;;;;;;11.73;5.93;;;9.20;90.90;;;9.75;60.54;99781.75;4869493;28;113673;-86
2021/12/14 11:00:46;;;;;;;10.53;5.20;;;10.00;90.80;;;9.81;60.77;99791.69;4873475;28;114762;-87
2021/12/14 11:03:22;;;;;;;8.47;4.70;;;9.20;91.00;;;9.87;60.58;99787.78;4867220;28;124663;-87
2021/12/14 11:05:56;;;;;;;8.83;5.50;;;9.30;91.10;;;9.94;60.88;99782.78;4878239;28;123597;-84
2021/12/14 11:11:13;;;;;;;8.00;5.43;;;9.40;91.10;;;10.04;60.28;99772.78;4873900;28;114372;-85
2021/12/14 11:13:52;;;;;;;11.17;5.83;;;9.40;91.00;;;10.06;60.15;99782.44;4869761;28;124160;-86
2021/12/14 11:18:08;;;;;;;7.43;5.00;;;9.50;91.00;;;10.11;60.54;99779.63;4869596;28;124052;-86
2021/12/14 11:19:38;;;;;;;10.03;4.90;;;9.50;91.00;;;10.17;60.41;99781.25;4870030;28;113456;-87
2021/12/14 11:22:27;;;;;;;8.90;5.93;;;9.60;90.90;;;10.28;60.03;99789.50;4872790;28;114040;-88
2021/12/14 11:25:27;;;;;;;10.50;6.60;;;9.60;90.90;;;10.31;60.08;99777.88;4830795;28;124168;-87
2021/12/14 11:28:03;;;;;;;6.47;4.80;;;9.70;90.80;;;10.37;60.20;99777.56;4868925;28;124380;-87
2021/12/14 11:30:45;;;;;;;9.33;4.80;;;9.90;90.90;;;10.48;59.85;99771.97;4872205;28;115091;-87
2021/12/14 11:33:43;;;;;;;8.10;5.30;;;8.60;90.40;;;10.65;59.59;99768.81;4866588;28;115087;-87
2021/12/14 11:36:20;;;;;;;6.53;5.03;;;10.00;90.40;;;10.78;59.44;99773.66;4853292;28;122175;-87
2021/12/14 11:39:00;;;;;;;10.17;5.37;;;10.10;90.40;;;10.91;59.31;99781.28;4869647;28;124390;-88